CDT,Max TemperatureF,Mean TemperatureF,Min TemperatureF,Max Dew PointF,MeanDew PointF,Min DewpointF,Max Humidity, Mean Humidity, Min Humidity, Max Sea Level PressureIn, Mean Sea Level PressureIn, Min Sea Level PressureIn, Max VisibilityMiles, Mean VisibilityMiles, Min VisibilityMiles, Max Wind SpeedMPH, Mean Wind SpeedMPH, Max Gust SpeedMPH,PrecipitationIn, CloudCover, Events, WindDirDegrees
2013-3-1,30,24,17,23,17,10,80,68,59,30.22,30.17,30.10,10,10,5,13,8,17,0.00,6,Snow,10
2013-3-2,30,20,10,12,7,3,85,57,32,30.23,30.19,30.13,10,10,10,9,6,,0.00,0,,346
2013-3-3,32,21,10,10,6,1,73,52,32,30.13,30.08,30.03,10,10,10,7,1,,0.00,0,Snow,108
2013-3-4,32,28,23,23,17,9,75,65,54,30.06,29.99,29.93,10,10,7,17,9,23,0.00,6,Snow,101
2013-3-5,32,30,28,28,26,21,93,85,69,30.11,29.94,29.86,10,4,1,15,10,20,0.07,8,Snow,21
2013-3-6,32,26,17,23,21,14,93,74,64,30.30,30.25,30.11,10,10,10,15,10,22,0.00,7,Snow,324
2013-3-7,32,21,10,23,17,7,93,79,64,30.37,30.34,30.30,10,9,0,8,2,,0.00,0,Fog-Snow,151
2013-3-8,35,27,19,27,24,18,93,79,69,30.39,30.33,30.21,10,10,7,17,9,,0.00,0,,133
2013-3-9,37,34,32,36,32,27,100,87,75,30.20,29.95,29.74,10,6,1,20,13,26,0.38,7,Rain-Snow,143
2013-3-10,41,37,33,37,36,32,100,93,87,29.77,29.68,29.60,10,4,0,20,10,26,0.16,8,Fog-Rain-Snow,56
2013-3-11,33,32,32,32,31,27,100,93,80,29.77,29.63,29.57,10,8,2,18,10,25,0.00,8,Snow,323
2013-3-12,32,28,24,28,23,18,93,78,64,30.02,29.88,29.78,10,8,2,22,13,30,0.00,7,Snow,274
2013-3-13,32,26,19,19,13,5,80,60,32,30.29,30.22,30.03,10,10,2,15,10,21,0.00,1,Snow,299
2013-3-14,33,27,21,30,23,16,93,82,64,30.29,30.16,30.02,10,8,1,12,5,,0.01,4,Snow,157
2013-3-15,35,30,26,32,31,25,100,92,87,30.02,29.87,29.74,5,3,1,14,4,21,0.02,6,Rain-Snow,93
2013-3-16,32,29,26,32,24,19,100,79,64,30.12,29.95,29.76,10,10,5,14,9,16,0.00,7,,1
2013-3-17,32,26,19,21,17,9,74,66,55,30.20,30.10,29.93,10,10,10,17,9,22,0.00,1,,71
2013-3-18,33,26,17,30,22,10,93,81,68,29.94,29.71,29.57,10,6,0,28,12,38,0.03,7,Snow,173
2013-3-19,28,20,12,12,8,3,79,61,47,30.06,29.92,29.75,10,10,5,25,20,34,0.00,2,Snow,273
2013-3-20,23,16,8,9,4,-2,79,59,46,30.09,30.05,30.01,10,10,10,22,13,28,0.00,2,,290
2013-3-21,30,19,8,12,8,3,79,62,44,30.05,30.02,29.98,10,10,10,9,4,,0.00,0,Snow,285
2013-3-22,33,24,14,19,13,7,79,59,44,30.04,30.02,29.99,10,10,10,6,1,,0.00,0,,271
2013-3-23,37,29,21,21,19,18,86,61,45,30.09,30.05,30.01,10,10,10,8,2,,0.00,0,Snow,72
2013-3-24,32,31,30,28,26,19,87,79,60,30.02,29.87,29.78,10,8,2,17,9,24,0.00,8,Snow,24
2013-3-25,35,32,28,25,22,18,74,66,60,30.10,29.96,29.82,10,10,10,15,10,23,0.00,7,Snow,342
2013-3-26,41,34,28,27,21,19,75,61,45,30.25,30.19,30.11,10,10,10,12,7,17,0.00,6,,311
2013-3-27,42,37,32,28,22,14,87,60,31,30.31,30.28,30.25,10,10,10,9,4,,0.00,4,,277
2013-3-28,44,37,30,23,20,14,69,50,29,30.34,30.30,30.26,10,10,10,6,0,,0.00,3,,300
2013-3-29,51,42,33,30,23,19,75,48,30,30.31,30.26,30.19,10,10,10,7,1,,0.00,2,,107
2013-3-30,51,43,35,43,34,27,93,69,50,30.19,29.99,29.83,10,9,3,21,10,28,0.00,6,Rain,184
2013-3-31,42,37,32,37,30,14,93,75,48,29.94,29.81,29.76,10,7,0,25,10,31,0.00,6,Fog,286